Time;durP1;ratioP1;P1;durP2;ratioP2;P2;SDS_P1;SDS_P2;PMS_P1;PMS_P2;Temp;Humidity;BMP_temperature;BMP_pressure;BME280_temperature;BME280_humidity;BME280_pressure;Samples;Min_cycle;Max_cycle;Signal;HPM_P1;HPM_P2
2023/07/27 00:00:30;;;;;;;;;;;;;;;21.32;49.96;100717.13;4099921;29;19922;-58
2023/07/27 00:02:32;;;;;;;;;;;;;;;21.31;50.67;100715.44;4099002;29;19933;-55
2023/07/27 00:04:34;;;;;;;;;;;;;;;21.32;50.58;100712.63;4099877;29;19922;-55
2023/07/27 00:06:35;;;;;;;;;;;;;;;21.32;50.26;100717.13;4099618;29;19923;-56
2023/07/27 00:08:37;;;;;;;;;;;;;;;21.32;50.38;100714.47;4099697;29;19926;-52
2023/07/27 00:10:40;;;;;;;;;;;;;;;21.31;50.44;100718.09;4098170;29;19953;-57
2023/07/27 00:12:42;;;;;;;;;;;;;;;21.30;50.63;100713.72;4098859;29;20369;-55
2023/07/27 00:14:43;;;;;;;;;;;;;;;21.29;50.82;100714.69;4099574;29;19978;-55
2023/07/27 00:16:45;;;;;;;;;;;;;;;21.30;51.62;100711.06;4099740;29;19926;-56
2023/07/27 00:18:46;;;;;;;;;;;;;;;21.30;51.20;100705.69;4099437;29;19922;-58
2023/07/27 00:20:48;;;;;;;;;;;;;;;21.28;51.24;100707.66;4099530;29;19993;-57
2023/07/27 00:22:49;;;;;;;;;;;;;;;21.29;50.66;100706.66;4098460;29;19929;-57
2023/07/27 00:24:51;;;;;;;;;;;;;;;21.29;50.63;100695.97;4099453;28;19922;-54
2023/07/27 00:26:53;;;;;;;;;;;;;;;21.28;50.93;100692.47;4099503;29;20073;-56
2023/07/27 00:28:54;;;;;;;;;;;;;;;21.27;51.25;100689.91;4100122;28;20025;-56
2023/07/27 00:30:56;;;;;;;;;;;;;;;21.27;51.74;100681.88;4102429;29;20021;-55
2023/07/27 00:32:57;;;;;;;;;;;;;;;21.28;51.94;100684.44;4102044;29;20408;-56
2023/07/27 00:34:59;;;;;;;;;;;;;;;21.28;51.50;100683.59;4102559;29;19922;-57
2023/07/27 00:37:01;;;;;;;;;;;;;;;21.28;51.55;100681.75;4085763;29;19922;-55
2023/07/27 00:39:02;;;;;;;;;;;;;;;21.28;51.12;100678.25;4102453;29;19973;-56
2023/07/27 00:41:04;;;;;;;;;;;;;;;21.27;50.79;100684.56;4085607;29;19957;-55
2023/07/27 00:43:06;;;;;;;;;;;;;;;21.27;51.09;100679.22;4101612;29;20017;-57
2023/07/27 00:45:08;;;;;;;;;;;;;;;21.27;50.94;100674.69;4102378;29;19965;-57
2023/07/27 00:47:10;;;;;;;;;;;;;;;21.28;51.02;100683.59;4102477;29;19922;-56
2023/07/27 00:49:11;;;;;;;;;;;;;;;21.27;52.01;100690.75;4102383;29;19922;-57
2023/07/27 00:51:13;;;;;;;;;;;;;;;21.26;52.02;100675.69;4102329;29;19945;-56
2023/07/27 00:53:15;;;;;;;;;;;;;;;21.27;51.65;100677.38;4084823;29;19922;-55
2023/07/27 00:55:17;;;;;;;;;;;;;;;21.27;50.73;100671.19;4085229;29;20010;-54
2023/07/27 00:57:20;;;;;;;;;;;;;;;21.26;50.75;100672.16;4102110;29;20393;-56
2023/07/27 00:59:21;;;;;;;;;;;;;;;21.27;50.70;100671.19;4102350;29;19930;-56
2023/07/27 01:01:24;;;;;;;;;;;;;;;21.27;50.81;100665.84;4102262;29;20002;-56
2023/07/27 01:03:25;;;;;;;;;;;;;;;21.27;51.55;100669.34;4101493;29;19922;-57
2023/07/27 01:05:27;;;;;;;;;;;;;;;21.25;51.63;100668.63;4102096;29;19993;-57
2023/07/27 01:07:29;;;;;;;;;;;;;;;21.25;51.13;100673.97;4102020;29;19970;-53
2023/07/27 01:09:31;;;;;;;;;;;;;;;21.25;51.10;100665.94;4102206;29;19946;-56
2023/07/27 01:11:38;;;;;;;;;;;;;;;21.27;51.61;100663.16;4101515;29;19926;-54
2023/07/27 01:13:42;;;;;;;;;;;;;;;21.26;51.18;100661.47;4102060;29;19922;-57
2023/07/27 01:15:47;;;;;;;;;;;;;;;21.23;51.15;100642.00;4102002;29;20393;-55
2023/07/27 01:18:01;;;;;;;;;;;;;;;21.23;51.82;100652.72;4102064;29;20286;-56
2023/07/27 01:20:14;;;;;;;;;;;;;;;21.22;51.40;100640.31;4102111;29;19923;-57
2023/07/27 01:22:26;;;;;;;;;;;;;;;21.23;51.50;100633.16;4101057;29;20305;-54
2023/07/27 01:24:28;;;;;;;;;;;;;;;21.23;51.42;100638.50;4101797;28;20021;-55
2023/07/27 01:26:48;;;;;;;;;;;;;;;21.22;51.12;100650.16;4101548;29;19922;-55
2023/07/27 01:28:49;;;;;;;;;;;;;;;21.23;51.54;100654.53;4101737;29;19926;-55
2023/07/27 01:31:15;;;;;;;;;;;;;;;21.23;51.57;100643.84;4101752;29;20013;-56
2023/07/27 01:33:21;;;;;;;;;;;;;;;21.22;51.48;100648.31;4101034;29;19922;-54
2023/07/27 01:35:25;;;;;;;;;;;;;;;21.21;51.43;100633.25;4101604;29;19923;-56
2023/07/27 01:37:28;;;;;;;;;;;;;;;21.21;50.96;100637.75;4101873;29;20353;-55
2023/07/27 01:39:31;;;;;;;;;;;;;;;21.21;51.43;100633.25;4100984;28;19981;-58
2023/07/27 01:41:36;;;;;;;;;;;;;;;21.21;51.41;100637.75;4101632;29;19926;-52
2023/07/27 01:43:39;;;;;;;;;;;;;;;21.22;51.75;100628.75;4100997;29;19988;-55
2023/07/27 01:45:41;;;;;;;;;;;;;;;21.21;52.44;100619.03;4101697;29;19923;-56
2023/07/27 01:47:43;;;;;;;;;;;;;;;21.20;51.92;100623.56;4101642;29;19922;-55
2023/07/27 01:49:46;;;;;;;;;;;;;;;21.20;51.47;100628.03;4101480;29;19922;-56
2023/07/27 01:51:48;;;;;;;;;;;;;;;21.20;51.80;100628.91;4100835;29;19981;-55
2023/07/27 01:53:51;;;;;;;;;;;;;;;21.20;51.99;100625.34;4101227;29;20385;-57
2023/07/27 01:55:53;;;;;;;;;;;;;;;21.21;51.70;100624.38;4101327;29;20017;-56
2023/07/27 01:57:59;;;;;;;;;;;;;;;21.20;51.86;100620.88;4101353;29;19929;-56
2023/07/27 02:00:02;;;;;;;;;;;;;;;21.19;51.91;100613.81;4101173;29;19977;-55
2023/07/27 02:02:03;;;;;;;;;;;;;;;21.19;51.68;100608.47;4100733;29;19957;-56
2023/07/27 02:04:05;;;;;;;;;;;;;;;21.18;51.96;100605.91;4101279;29;19923;-53
2023/07/27 02:06:07;;;;;;;;;;;;;;;21.19;52.18;100604.94;4101087;29;19929;-57
2023/07/27 02:08:09;;;;;;;;;;;;;;;21.19;52.21;100603.13;4100363;29;19953;-56
2023/07/27 02:10:12;;;;;;;;;;;;;;;21.18;51.83;100606.78;4100924;29;19930;-54
2023/07/27 02:12:18;;;;;;;;;;;;;;;21.18;52.09;100620.16;4100651;29;19929;-56
2023/07/27 02:14:27;;;;;;;;;;;;;;;21.18;51.97;100612.13;4101113;29;19922;-57
2023/07/27 02:16:28;;;;;;;;;;;;;;;21.18;52.00;100616.59;4101283;29;19926;-57
2023/07/27 02:18:30;;;;;;;;;;;;;;;21.17;52.41;100607.75;4101136;29;20432;-57
2023/07/27 02:20:34;;;;;;;;;;;;;;;21.17;52.00;100607.75;4101087;29;19922;-56
2023/07/27 02:22:37;;;;;;;;;;;;;;;21.17;52.13;100596.22;4100072;29;20364;-55
2023/07/27 02:24:38;;;;;;;;;;;;;;;21.17;52.46;100586.34;4100593;28;19926;-56
2023/07/27 02:26:41;;;;;;;;;;;;;;;21.17;52.08;100598.88;4101121;29;20304;-56
2023/07/27 02:28:42;;;;;;;;;;;;;;;21.16;52.34;100595.34;4083935;29;19929;-56
2023/07/27 02:30:44;;;;;;;;;;;;;;;21.16;52.41;100597.19;4100806;29;19922;-56
2023/07/27 02:32:46;;;;;;;;;;;;;;;21.16;52.18;100597.19;4100150;29;20312;-56
2023/07/27 02:34:47;;;;;;;;;;;;;;;21.16;51.64;100598.03;4100832;29;19970;-57
2023/07/27 02:36:49;;;;;;;;;;;;;;;21.16;52.23;100597.19;4100703;29;19926;-57
2023/07/27 02:38:50;;;;;;;;;;;;;;;21.15;52.53;100601.66;4100467;29;19977;-56
2023/07/27 02:40:52;;;;;;;;;;;;;;;21.16;52.30;100599.84;4100693;29;19948;-55
2023/07/27 02:42:53;;;;;;;;;;;;;;;21.15;52.78;100593.63;4100010;29;20349;-57
2023/07/27 02:44:55;;;;;;;;;;;;;;;21.14;52.44;100589.28;4100754;29;19923;-55
2023/07/27 02:46:56;;;;;;;;;;;;;;;21.15;51.79;100587.47;4100728;28;20035;-57
2023/07/27 02:49:03;;;;;;;;;;;;;;;21.16;51.95;100589.16;4100687;29;19923;-56
2023/07/27 02:51:09;;;;;;;;;;;;;;;21.16;51.74;100586.47;4099585;28;19969;-57
2023/07/27 02:53:11;;;;;;;;;;;;;;;21.16;51.50;100581.13;4099583;29;20434;-56
2023/07/27 02:55:12;;;;;;;;;;;;;;;21.15;51.84;100582.94;4100647;29;19962;-56
2023/07/27 02:57:14;;;;;;;;;;;;;;;21.15;52.92;100584.78;4100732;28;19923;-55
2023/07/27 02:59:15;;;;;;;;;;;;;;;21.13;52.41;100587.59;4100619;29;20021;-56
2023/07/27 03:01:17;;;;;;;;;;;;;;;21.13;52.54;100590.25;4100458;29;19928;-56
2023/07/27 03:03:18;;;;;;;;;;;;;;;21.13;52.67;100595.63;4099780;29;19927;-56
2023/07/27 03:05:20;;;;;;;;;;;;;;;21.12;53.06;100590.38;4100459;29;20301;-56
2023/07/27 03:07:21;;;;;;;;;;;;;;;21.12;52.73;100599.25;4100010;29;19929;-54
2023/07/27 03:09:23;;;;;;;;;;;;;;;21.12;52.67;100606.41;4100414;29;20005;-53
2023/07/27 03:11:29;;;;;;;;;;;;;;;21.11;52.85;100599.41;4100294;29;19926;-56
2023/07/27 03:13:35;;;;;;;;;;;;;;;21.13;52.10;100600.09;4099710;29;19922;-57
2023/07/27 03:15:42;;;;;;;;;;;;;;;21.14;51.69;100608.00;4100303;29;20013;-55
2023/07/27 03:17:43;;;;;;;;;;;;;;;21.13;52.43;100592.06;4100102;28;20012;-56
2023/07/27 03:19:45;;;;;;;;;;;;;;;21.13;52.21;100592.06;4098968;29;19957;-56
2023/07/27 03:21:48;;;;;;;;;;;;;;;21.11;52.57;100594.03;4099488;28;19922;-56
2023/07/27 03:23:49;;;;;;;;;;;;;;;21.12;52.63;100593.03;4099556;28;19950;-56
2023/07/27 03:25:51;;;;;;;;;;;;;;;21.12;51.54;100591.25;4100175;29;20305;-55
2023/07/27 03:27:53;;;;;;;;;;;;;;;21.12;52.56;100599.25;4099934;29;20341;-56
2023/07/27 03:29:55;;;;;;;;;;;;;;;21.11;52.47;100596.72;4100080;29;19922;-56
2023/07/27 03:31:57;;;;;;;;;;;;;;;21.11;52.21;100596.72;4099810;29;19922;-57
2023/07/27 03:33:58;;;;;;;;;;;;;;;21.11;52.53;100599.41;4099405;29;20337;-55
2023/07/27 03:35:59;;;;;;;;;;;;;;;21.10;52.45;100606.56;4099654;29;19930;-57
2023/07/27 03:38:02;;;;;;;;;;;;;;;21.10;52.77;100603.88;4100105;29;20012;-56
2023/07/27 03:40:04;;;;;;;;;;;;;;;21.03;53.09;100595.53;4100077;29;20421;-55
2023/07/27 03:42:05;;;;;;;;;;;;;;;21.10;52.59;100606.56;4099795;29;19972;-56
2023/07/27 03:44:08;;;;;;;;;;;;;;;21.10;52.71;100601.19;4099542;29;20412;-56
2023/07/27 03:46:10;;;;;;;;;;;;;;;21.10;52.94;100601.19;4099830;29;20404;-57
2023/07/27 03:48:11;;;;;;;;;;;;;;;21.09;52.70;100601.34;4099828;29;20297;-56
2023/07/27 03:50:13;;;;;;;;;;;;;;;21.09;52.64;100602.16;4099316;29;19970;-56
2023/07/27 03:52:14;;;;;;;;;;;;;;;21.08;53.24;100602.31;4099327;29;19923;-57
2023/07/27 03:54:16;;;;;;;;;;;;;;;21.08;53.48;100595.13;4098491;29;20415;-57
2023/07/27 03:56:17;;;;;;;;;;;;;;;21.07;53.25;100598.78;4099849;29;19929;-56
2023/07/27 03:58:19;;;;;;;;;;;;;;;21.07;53.33;100590.78;4099852;29;19922;-56
2023/07/27 04:00:21;;;;;;;;;;;;;;;21.06;52.86;100594.41;4099617;29;20377;-56
2023/07/27 04:02:23;;;;;;;;;;;;;;;21.05;52.93;100598.91;4098913;29;19922;-56
2023/07/27 04:04:25;;;;;;;;;;;;;;;21.05;53.18;100601.56;4099677;29;19922;-55
2023/07/27 04:06:26;;;;;;;;;;;;;;;21.05;53.36;100590.88;4099350;29;19929;-56
2023/07/27 04:08:28;;;;;;;;;;;;;;;21.05;52.93;100600.72;4099529;29;19962;-56
2023/07/27 04:10:29;;;;;;;;;;;;;;;21.06;53.31;100605.13;4098325;29;20012;-56
2023/07/27 04:12:31;;;;;;;;;;;;;;;21.06;53.19;100613.13;4098898;29;19928;-57
2023/07/27 04:14:32;;;;;;;;;;;;;;;21.05;53.27;100603.41;4099624;29;19922;-55
2023/07/27 04:16:34;;;;;;;;;;;;;;;21.05;52.86;100600.72;4099710;29;19923;-54
2023/07/27 04:18:35;;;;;;;;;;;;;;;21.04;52.91;100597.19;4082679;29;19927;-56
2023/07/27 04:20:37;;;;;;;;;;;;;;;21.04;52.79;100594.53;4099036;29;19923;-55
2023/07/27 04:22:43;;;;;;;;;;;;;;;21.05;52.80;100590.03;4098776;29;19929;-54
2023/07/27 04:24:45;;;;;;;;;;;;;;;21.03;52.99;100590.19;4099375;28;20405;-55
2023/07/27 04:26:47;;;;;;;;;;;;;;;21.04;52.85;100593.69;4099409;29;19926;-53
2023/07/27 04:28:48;;;;;;;;;;;;;;;21.05;52.49;100600.72;4099635;29;20408;-51
2023/07/27 04:30:50;;;;;;;;;;;;;;;21.04;52.86;100599.88;4099493;29;20389;-55
2023/07/27 04:32:51;;;;;;;;;;;;;;;21.03;53.27;100595.53;4098836;29;19926;-53
2023/07/27 04:34:53;;;;;;;;;;;;;;;21.04;52.69;100593.69;4097775;29;20005;-55
2023/07/27 04:36:54;;;;;;;;;;;;;;;21.03;52.87;100589.31;4099335;29;19929;-54
2023/07/27 04:38:56;;;;;;;;;;;;;;;21.04;53.02;100591.84;4099403;29;19922;-52
2023/07/27 04:40:58;;;;;;;;;;;;;;;21.03;52.98;100592.84;4099390;29;19969;-52
2023/07/27 04:42:59;;;;;;;;;;;;;;;21.04;52.99;100593.69;4098548;29;19933;-55
2023/07/27 04:45:01;;;;;;;;;;;;;;;21.02;52.93;100588.47;4099415;29;19922;-55
2023/07/27 04:47:03;;;;;;;;;;;;;;;21.02;53.38;100593.81;4099466;29;20382;-53
2023/07/27 04:49:06;;;;;;;;;;;;;;;21.02;52.94;100596.50;4082090;29;19978;-52
2023/07/27 04:51:08;;;;;;;;;;;;;;;21.03;52.76;100595.53;4099265;29;20033;-54
2023/07/27 04:53:09;;;;;;;;;;;;;;;21.03;52.67;100590.19;4098598;29;20013;-55
2023/07/27 04:55:11;;;;;;;;;;;;;;;21.02;53.14;100598.31;4099211;29;19991;-56
2023/07/27 04:57:12;;;;;;;;;;;;;;;21.02;52.96;100585.81;4099130;29;19922;-55
2023/07/27 04:59:14;;;;;;;;;;;;;;;21.03;53.36;100583.97;4099438;28;19941;-54
2023/07/27 05:01:15;;;;;;;;;;;;;;;21.02;53.43;100584.94;4099193;29;19977;-55
2023/07/27 05:03:17;;;;;;;;;;;;;;;21.01;53.40;100581.41;4098246;29;20047;-55
2023/07/27 05:05:18;;;;;;;;;;;;;;;21.01;53.23;100577.88;4099357;29;19922;-55
2023/07/27 05:07:20;;;;;;;;;;;;;;;21.02;53.07;100587.59;4099176;29;19926;-55
2023/07/27 05:09:22;;;;;;;;;;;;;;;21.01;53.33;100575.19;4099347;29;19922;-56
2023/07/27 05:11:23;;;;;;;;;;;;;;;21.01;53.41;100576.06;4099070;29;20037;-55
2023/07/27 05:13:25;;;;;;;;;;;;;;;21.01;53.28;100581.41;4098556;29;20009;-56
2023/07/27 05:15:27;;;;;;;;;;;;;;;21.01;53.59;100576.06;4100777;28;19922;-55
2023/07/27 05:17:28;;;;;;;;;;;;;;;21.01;53.37;100585.91;4101782;29;19922;-53
2023/07/27 05:19:30;;;;;;;;;;;;;;;21.01;53.52;100602.81;4101968;29;19922;-55
2023/07/27 05:21:31;;;;;;;;;;;;;;;21.01;53.73;100591.25;4101813;29;19927;-56
2023/07/27 05:23:32;;;;;;;;;;;;;;;21.01;53.69;100584.09;4101316;29;19930;-55
2023/07/27 05:25:34;;;;;;;;;;;;;;;21.01;53.94;100588.56;4102094;28;19961;-55
2023/07/27 05:27:36;;;;;;;;;;;;;;;21.01;53.94;100584.09;4100634;29;20018;-54
2023/07/27 05:29:37;;;;;;;;;;;;;;;21.00;53.85;100582.38;4084812;29;19922;-55
2023/07/27 05:31:40;;;;;;;;;;;;;;;21.01;54.06;100593.91;4101346;29;20445;-55
2023/07/27 05:33:41;;;;;;;;;;;;;;;21.00;53.80;100595.75;4101345;29;19922;-56
2023/07/27 05:35:47;;;;;;;;;;;;;;;21.01;53.91;100592.13;4101721;29;19929;-55
2023/07/27 05:37:48;;;;;;;;;;;;;;;21.00;54.19;100587.75;4101633;29;19922;-55
2023/07/27 05:39:50;;;;;;;;;;;;;;;21.00;53.85;100582.38;4101827;29;19929;-55
2023/07/27 05:41:51;;;;;;;;;;;;;;;21.00;53.90;100586.91;4084627;29;19965;-57
2023/07/27 05:43:53;;;;;;;;;;;;;;;21.00;53.96;100590.41;4100832;29;19922;-55
2023/07/27 05:45:54;;;;;;;;;;;;;;;21.00;53.97;100586.91;4101791;29;20009;-55
2023/07/27 05:47:56;;;;;;;;;;;;;;;20.99;53.93;100572.66;4101331;29;19922;-52
2023/07/27 05:49:58;;;;;;;;;;;;;;;20.99;54.22;100586.03;4101694;29;19922;-56
2023/07/27 05:52:00;;;;;;;;;;;;;;;21.00;54.45;100592.25;4101578;29;19922;-54
2023/07/27 05:54:02;;;;;;;;;;;;;;;20.99;54.25;100588.72;4101059;29;20005;-55
2023/07/27 05:56:03;;;;;;;;;;;;;;;20.99;54.27;100591.38;4101499;29;19923;-54
2023/07/27 05:58:06;;;;;;;;;;;;;;;21.00;54.25;100590.41;4101558;29;20360;-56
2023/07/27 06:00:26;;;;;;;;;;;;;;;20.99;54.19;100593.22;4101494;29;19926;-54
2023/07/27 06:02:28;;;;;;;;;;;;;;;21.00;54.41;100585.06;4101067;29;20258;-55
2023/07/27 06:04:29;;;;;;;;;;;;;;;21.01;54.22;100583.22;4100876;29;19929;-55
2023/07/27 06:06:31;;;;;;;;;;;;;;;20.99;54.49;100572.66;4101380;29;19926;-55
2023/07/27 06:08:33;;;;;;;;;;;;;;;20.99;54.20;100569.16;4084304;29;20325;-50
2023/07/27 06:10:35;;;;;;;;;;;;;;;20.99;54.55;100571.81;4101122;29;19938;-54
2023/07/27 06:12:36;;;;;;;;;;;;;;;21.00;54.29;100569.03;4100935;29;19929;-56
2023/07/27 06:14:41;;;;;;;;;;;;;;;21.01;54.26;100561.84;4100978;29;19934;-56
2023/07/27 06:16:42;;;;;;;;;;;;;;;21.01;54.45;100569.84;4100698;29;19922;-55
2023/07/27 06:18:44;;;;;;;;;;;;;;;21.02;54.57;100563.53;4101146;29;19922;-54
2023/07/27 06:20:46;;;;;;;;;;;;;;;21.01;54.78;100560.03;4101080;28;20384;-54
2023/07/27 06:22:47;;;;;;;;;;;;;;;21.01;54.30;100570.72;4100340;29;19969;-54
2023/07/27 06:24:49;;;;;;;;;;;;;;;21.02;54.60;100567.09;4100888;28;19929;-55
2023/07/27 06:26:50;;;;;;;;;;;;;;;21.03;54.41;100579.47;4101093;28;20381;-54
2023/07/27 06:28:52;;;;;;;;;;;;;;;21.03;54.58;100566.13;4100861;29;20017;-55
2023/07/27 06:30:53;;;;;;;;;;;;;;;21.03;53.79;100571.47;4100671;29;19983;-55
2023/07/27 06:32:55;;;;;;;;;;;;;;;21.03;54.19;100574.13;4100042;29;20024;-52
2023/07/27 06:34:57;;;;;;;;;;;;;;;21.04;54.23;100575.81;4100736;29;20341;-57
2023/07/27 06:36:58;;;;;;;;;;;;;;;21.04;54.08;100578.47;4099757;29;19974;-55
2023/07/27 06:39:00;;;;;;;;;;;;;;;21.05;53.73;100585.53;4100770;29;20301;-53
2023/07/27 06:41:01;;;;;;;;;;;;;;;21.06;53.30;100581.06;4100818;29;19926;-56
2023/07/27 06:43:03;;;;;;;;;;;;;;;21.07;53.48;100588.09;4100039;29;20022;-56
2023/07/27 06:45:04;;;;;;;;;;;;;;;21.07;54.47;100590.78;4100356;29;19922;-53
2023/07/27 06:47:06;;;;;;;;;;;;;;;21.07;54.76;100601.47;4100546;29;19968;-56
2023/07/27 06:49:10;;;;;;;;;;;;;;;21.06;54.53;100597.09;4100584;29;19923;-55
2023/07/27 06:51:12;;;;;;;;;;;;;;;21.05;54.55;100588.19;4100536;29;19926;-56
2023/07/27 06:53:13;;;;;;;;;;;;;;;21.06;54.17;100586.41;4100092;29;20282;-55
2023/07/27 06:55:16;;;;;;;;;;;;;;;21.06;54.13;100584.56;4100573;29;19929;-51
2023/07/27 06:57:17;;;;;;;;;;;;;;;21.06;54.12;100583.72;4100610;29;20002;-56
2023/07/27 06:59:19;;;;;;;;;;;;;;;21.07;53.64;100588.09;4100153;29;19922;-54
2023/07/27 07:01:21;;;;;;;;;;;;;;;21.08;53.93;100581.75;4100283;29;20009;-56
2023/07/27 07:03:22;;;;;;;;;;;;;;;21.10;53.53;100582.47;4099803;29;19923;-55
2023/07/27 07:05:24;;;;;;;;;;;;;;;21.10;53.30;100589.66;4100436;29;19926;-53
2023/07/27 07:07:25;;;;;;;;;;;;;;;21.10;53.07;100587.84;4100484;29;19923;-53
2023/07/27 07:09:27;;;;;;;;;;;;;;;21.12;53.27;100588.56;4100218;29;20007;-54
2023/07/27 07:11:28;;;;;;;;;;;;;;;21.13;53.57;100597.41;4100277;29;19926;-56
2023/07/27 07:13:30;;;;;;;;;;;;;;;21.12;53.64;100588.56;4099219;28;20385;-55
2023/07/27 07:15:31;;;;;;;;;;;;;;;21.12;53.67;100588.56;4100317;28;19937;-55
2023/07/27 07:17:33;;;;;;;;;;;;;;;21.13;53.51;100587.59;4100307;29;19933;-54
2023/07/27 07:19:35;;;;;;;;;;;;;;;21.14;53.53;100583.06;4100253;29;20021;-55
2023/07/27 07:21:36;;;;;;;;;;;;;;;21.14;54.15;100589.28;4100056;29;20316;-54
2023/07/27 07:23:38;;;;;;;;;;;;;;;21.14;54.06;100591.09;4099650;29;19923;-56
2023/07/27 07:25:40;;;;;;;;;;;;;;;21.14;53.67;100585.75;4099903;28;20308;-55
2023/07/27 07:27:42;;;;;;;;;;;;;;;21.15;53.65;100582.09;4099779;29;19948;-55
2023/07/27 07:29:43;;;;;;;;;;;;;;;21.15;53.82;100585.63;4100046;29;19961;-57
2023/07/27 07:31:45;;;;;;;;;;;;;;;21.16;54.17;100595.34;4100008;29;19922;-56
2023/07/27 07:33:46;;;;;;;;;;;;;;;21.16;53.68;100598.03;4099242;29;19930;-55
2023/07/27 07:35:48;;;;;;;;;;;;;;;21.18;53.50;100605.91;4099990;29;19929;-55
2023/07/27 07:37:49;;;;;;;;;;;;;;;21.17;53.33;100591.69;4099687;28;20005;-54
2023/07/27 07:39:51;;;;;;;;;;;;;;;21.20;53.41;100595.94;4099884;29;19930;-55
2023/07/27 07:41:52;;;;;;;;;;;;;;;21.20;53.04;100606.63;4099918;29;19965;-53
2023/07/27 07:43:54;;;;;;;;;;;;;;;21.22;52.98;100610.03;4098734;29;20005;-54
2023/07/27 07:45:55;;;;;;;;;;;;;;;21.22;52.64;100615.41;4099932;29;19922;-55
2023/07/27 07:47:57;;;;;;;;;;;;;;;21.22;52.99;100616.22;4099760;29;20016;-55
2023/07/27 07:49:59;;;;;;;;;;;;;;;21.22;52.61;100610.88;4099893;28;19973;-56
2023/07/27 07:52:00;;;;;;;;;;;;;;;21.25;52.60;100611.63;4099974;29;19954;-55
2023/07/27 07:54:02;;;;;;;;;;;;;;;21.25;52.57;100616.97;4099007;29;19926;-55
2023/07/27 07:56:04;;;;;;;;;;;;;;;21.25;52.72;100612.44;4099883;29;20416;-56
2023/07/27 07:58:05;;;;;;;;;;;;;;;21.26;52.60;100616.00;4099454;29;19922;-55
2023/07/27 08:00:07;;;;;;;;;;;;;;;21.25;52.43;100609.78;4099791;28;20270;-55
2023/07/27 08:02:11;;;;;;;;;;;;;;;21.25;52.59;100609.78;4099846;29;19923;-55
2023/07/27 08:04:13;;;;;;;;;;;;;;;21.25;52.53;100609.78;4099173;29;20444;-55
2023/07/27 08:06:14;;;;;;;;;;;;;;;21.26;52.53;100606.13;4099716;29;19934;-55
2023/07/27 08:08:16;;;;;;;;;;;;;;;21.26;52.81;100599.94;4098504;29;19922;-54
2023/07/27 08:10:17;;;;;;;;;;;;;;;21.26;52.26;100589.25;4099487;29;19957;-53
2023/07/27 08:12:19;;;;;;;;;;;;;;;21.29;52.51;100589.84;4099358;29;19930;-55
2023/07/27 08:14:21;;;;;;;;;;;;;;;21.31;52.29;100597.72;4098980;29;20401;-56
2023/07/27 08:16:23;;;;;;;;;;;;;;;21.32;52.67;100602.94;4099531;29;19961;-56
2023/07/27 08:18:24;;;;;;;;;;;;;;;21.32;52.51;100591.41;4098549;29;19922;-54
2023/07/27 08:20:26;;;;;;;;;;;;;;;21.33;52.30;100596.63;4099529;29;19922;-54
2023/07/27 08:22:28;;;;;;;;;;;;;;;21.34;52.12;100597.50;4099460;29;19929;-56
2023/07/27 08:24:30;;;;;;;;;;;;;;;21.34;52.44;100609.03;4097702;29;19929;-55
2023/07/27 08:26:31;;;;;;;;;;;;;;;21.35;52.31;100597.34;4099268;29;19922;-56
2023/07/27 08:28:34;;;;;;;;;;;;;;;21.36;52.30;100593.69;4099417;29;20080;-56
2023/07/27 08:30:35;;;;;;;;;;;;;;;21.36;52.43;100585.69;4099521;29;19922;-55
2023/07/27 08:32:37;;;;;;;;;;;;;;;21.39;52.18;100590.75;4099630;29;19922;-55
2023/07/27 08:34:38;;;;;;;;;;;;;;;21.40;52.21;100594.28;4098974;29;19930;-54
2023/07/27 08:36:40;;;;;;;;;;;;;;;21.39;52.23;100598.78;4099507;29;19922;-56
2023/07/27 08:38:41;;;;;;;;;;;;;;;21.39;52.28;100593.44;4099329;28;19997;-55
2023/07/27 08:40:53;;;;;;;;;;;;;;;21.40;52.47;100594.28;4099072;29;19966;-55
2023/07/27 08:42:54;;;;;;;;;;;;;;;21.40;52.31;100591.63;4098136;29;20030;-56
2023/07/27 08:44:56;;;;;;;;;;;;;;;21.40;52.17;100591.63;4098658;29;19928;-59
2023/07/27 08:47:00;;;;;;;;;;;;;;;21.41;52.14;100597.81;4099486;29;19965;-54
2023/07/27 08:49:02;;;;;;;;;;;;;;;21.40;52.45;100591.63;4099353;28;20322;-56
2023/07/27 08:51:04;;;;;;;;;;;;;;;21.39;51.98;100584.56;4102166;29;20330;-53
2023/07/27 08:53:06;;;;;;;;;;;;;;;21.39;52.45;100588.09;4102107;29;20341;-55
2023/07/27 08:55:07;;;;;;;;;;;;;;;21.41;52.04;100582.63;4101433;29;19922;-57
2023/07/27 08:57:09;;;;;;;;;;;;;;;21.41;52.27;100585.31;4102326;29;20013;-56
2023/07/27 08:59:11;;;;;;;;;;;;;;;21.41;52.30;100579.94;4102567;29;19929;-55
2023/07/27 09:01:13;;;;;;;;;;;;;;;21.42;51.94;100594.16;4102353;29;19929;-53
2023/07/27 09:03:15;;;;;;;;;;;;;;;21.43;52.16;100585.16;4101697;29;19977;-56
2023/07/27 09:05:16;;;;;;;;;;;;;;;21.43;52.29;100587.84;4101999;29;19926;-55
2023/07/27 09:07:18;;;;;;;;;;;;;;;21.42;52.00;100584.28;4102269;29;20030;-55
2023/07/27 09:09:25;;;;;;;;;;;;;;;21.44;51.99;100589.53;4101788;29;19930;-56
2023/07/27 09:11:27;;;;;;;;;;;;;;;21.46;52.05;100585.75;4102050;29;19972;-54
2023/07/27 09:13:29;;;;;;;;;;;;;;;21.43;51.90;100590.50;4101554;29;19922;-55
2023/07/27 09:15:35;;;;;;;;;;;;;;;21.48;51.95;100601.66;4101939;29;20357;-55
2023/07/27 09:17:36;;;;;;;;;;;;;;;21.47;51.82;100598.16;4101021;29;20016;-56
2023/07/27 09:19:39;;;;;;;;;;;;;;;21.48;51.48;100597.19;4099245;29;19922;-54
2023/07/27 09:21:41;;;;;;;;;;;;;;;21.49;51.09;100581.97;4100435;29;19930;-56
2023/07/27 09:23:42;;;;;;;;;;;;;;;21.67;51.16;100607.19;4099419;29;20187;-58
2023/07/27 09:25:56;;;;;;;;;;;;;;;21.72;50.82;100598.78;4101810;28;20279;-52
2023/07/27 09:27:58;;;;;;;;;;;;;;;21.78;50.64;100595.59;4101882;29;19957;-54
2023/07/27 09:29:59;;;;;;;;;;;;;;;21.84;50.43;100599.56;4101764;28;19926;-55
2023/07/27 09:32:01;;;;;;;;;;;;;;;21.89;50.79;100597.34;4101987;29;19955;-55
2023/07/27 09:34:04;;;;;;;;;;;;;;;21.93;50.53;100597.94;4100886;29;19927;-57
2023/07/27 09:36:07;;;;;;;;;;;;;;;21.97;50.23;100604.72;4100554;29;19927;-56
2023/07/27 09:38:09;;;;;;;;;;;;;;;21.99;50.23;100605.44;4101363;29;19922;-57
2023/07/27 09:40:15;;;;;;;;;;;;;;;22.02;50.71;100600.66;4101362;29;19922;-55
2023/07/27 09:42:17;;;;;;;;;;;;;;;22.04;50.87;100597.84;4101481;29;20113;-54
2023/07/27 09:44:19;;;;;;;;;;;;;;;22.06;50.75;100592.38;4100890;29;19945;-56
2023/07/27 09:46:22;;;;;;;;;;;;;;;22.09;50.52;100595.66;4101527;29;19984;-54
2023/07/27 09:48:24;;;;;;;;;;;;;;;22.13;50.33;100598.91;4101526;29;19926;-56
2023/07/27 09:50:30;;;;;;;;;;;;;;;22.16;50.67;100598.63;4101372;29;19923;-57
2023/07/27 09:52:31;;;;;;;;;;;;;;;22.19;50.43;100598.38;4101197;29;19957;-57
2023/07/27 09:54:34;;;;;;;;;;;;;;;22.22;50.45;100595.41;4100507;29;20090;-57
2023/07/27 09:56:35;;;;;;;;;;;;;;;22.23;50.71;100594.44;4101287;29;19922;-57
2023/07/27 09:58:39;;;;;;;;;;;;;;;22.24;50.47;100585.41;4101444;29;19954;-58
2023/07/27 10:00:41;;;;;;;;;;;;;;;22.27;50.63;100581.63;4100709;28;19929;-56
2023/07/27 10:02:42;;;;;;;;;;;;;;;22.26;50.62;100594.19;4101467;29;20329;-57
2023/07/27 10:04:51;;;;;;;;;;;;;;;22.29;50.25;100604.63;4106202;28;19926;-57
2023/07/27 10:06:53;;;;;;;;;;;;;;;22.30;50.41;100600.97;4104034;28;20434;-52
2023/07/27 10:08:55;;;;;;;;;;;;;;;22.30;50.41;100600.97;4100318;29;19933;-55
2023/07/27 10:11:01;;;;;;;;;;;;;;;22.29;50.60;100591.22;4100442;29;20358;-57
2023/07/27 10:13:07;;;;;;;;;;;;;;;22.33;50.46;100591.78;4100587;29;19926;-57
2023/07/27 10:15:19;;;;;;;;;;;;;;;22.32;50.39;100582.94;4099592;29;19950;-57
2023/07/27 10:17:20;;;;;;;;;;;;;;;22.35;50.36;100581.81;4098337;29;20310;-58
2023/07/27 10:19:22;;;;;;;;;;;;;;;22.36;50.48;100580.81;4099379;29;19929;-58
2023/07/27 10:21:25;;;;;;;;;;;;;;;22.38;50.32;100588.72;4100017;29;19922;-57
2023/07/27 10:23:28;;;;;;;;;;;;;;;22.39;50.34;100585.09;4082642;29;20031;-58
2023/07/27 10:25:49;;;;;;;;;;;;;;;22.39;50.23;100583.25;4099765;28;19969;-57
2023/07/27 10:27:55;;;;;;;;;;;;;;;22.40;49.98;100582.28;4100090;29;20028;-56